sensor_id;sensor_type;location;lat;lon;timestamp;P1;P2;P0
45788;PMS7003;31492;54.856;26.318;2023-02-23T05:56:11;13.9;11.9;8.7
45788;PMS7003;31492;54.856;26.318;2023-02-23T06:01:23;16.7;13.6;9.9
45788;PMS7003;31492;54.856;26.318;2023-02-23T06:06:10;17.3;14.2;10.6
45788;PMS7003;31492;54.856;26.318;2023-02-23T06:11:10;18.7;15.3;11.4
45788;PMS7003;31492;54.856;26.318;2023-02-23T06:16:10;18.4;14.9;10.6
45788;PMS7003;31492;54.856;26.318;2023-02-23T06:21:10;18.3;15.9;11.1
45788;PMS7003;31492;54.856;26.318;2023-02-23T06:26:36;17.1;14.2;10.7
45788;PMS7003;31492;54.856;26.318;2023-02-23T06:31:24;18.2;14.7;10.4
45788;PMS7003;31492;54.856;26.318;2023-02-23T06:36:18;15.9;13.2;9.2
45788;PMS7003;31492;54.856;26.318;2023-02-23T06:41:23;20;16.9;12.1
45788;PMS7003;31492;54.856;26.318;2023-02-23T06:46:24;19.7;14.2;10.6
45788;PMS7003;31492;54.856;26.318;2023-02-23T06:51:10;22;18.5;13.4
45788;PMS7003;31492;54.856;26.318;2023-02-23T06:56:48;21;16.4;11.6
45788;PMS7003;31492;54.856;26.318;2023-02-23T07:01:10;21.8;18.6;13.8
45788;PMS7003;31492;54.856;26.318;2023-02-23T07:06:24;23.7;20.2;14.5
45788;PMS7003;31492;54.856;26.318;2023-02-23T07:11:11;25.2;20.3;13
45788;PMS7003;31492;54.856;26.318;2023-02-23T07:16:10;16.4;14.3;9.7
45788;PMS7003;31492;54.856;26.318;2023-02-23T07:21:24;17.7;14.5;10.4
45788;PMS7003;31492;54.856;26.318;2023-02-23T07:26:10;20.7;17.6;12.3
45788;PMS7003;31492;54.856;26.318;2023-02-23T07:31:22;19.1;17;12.6
45788;PMS7003;31492;54.856;26.318;2023-02-23T07:36:24;19.7;15.5;11.2
45788;PMS7003;31492;54.856;26.318;2023-02-23T07:41:10;18.5;14.9;10.8
45788;PMS7003;31492;54.856;26.318;2023-02-23T07:46:10;19.8;16.2;11.1
45788;PMS7003;31492;54.856;26.318;2023-02-23T07:51:11;16.2;14.1;10.5
45788;PMS7003;31492;54.856;26.318;2023-02-23T07:56:24;16;13.3;9.2
45788;PMS7003;31492;54.856;26.318;2023-02-23T08:01:11;17.5;15.2;10
45788;PMS7003;31492;54.856;26.318;2023-02-23T08:06:10;18.2;15.3;10.8
45788;PMS7003;31492;54.856;26.318;2023-02-23T08:11:10;16.7;13.9;10.3
45788;PMS7003;31492;54.856;26.318;2023-02-23T08:16:18;16;12.7;9.2
45788;PMS7003;31492;54.856;26.318;2023-02-23T08:21:25;15.7;13.7;10.1
45788;PMS7003;31492;54.856;26.318;2023-02-23T08:26:22;19.2;16.2;12.1
45788;PMS7003;31492;54.856;26.318;2023-02-23T08:31:11;19;15.9;11.8
45788;PMS7003;31492;54.856;26.318;2023-02-23T08:36:24;21.3;17.6;12.6
45788;PMS7003;31492;54.856;26.318;2023-02-23T08:41:19;19.1;15.4;11
45788;PMS7003;31492;54.856;26.318;2023-02-23T08:47:04;20.2;16.7;11.8
45788;PMS7003;31492;54.856;26.318;2023-02-23T08:51:32;20.4;17.1;12.2
45788;PMS7003;31492;54.856;26.318;2023-02-23T08:56:22;19.2;17.3;11.4
45788;PMS7003;31492;54.856;26.318;2023-02-23T09:01:14;19.6;16.6;11.8
45788;PMS7003;31492;54.856;26.318;2023-02-23T09:06:11;16.3;13.4;9.4
45788;PMS7003;31492;54.856;26.318;2023-02-23T09:11:10;18.6;16;11.7
45788;PMS7003;31492;54.856;26.318;2023-02-23T09:16:10;18.5;15.3;11.2
45788;PMS7003;31492;54.856;26.318;2023-02-23T09:21:13;19.4;15.7;11.8
45788;PMS7003;31492;54.856;26.318;2023-02-23T09:26:10;19.4;16.3;11.9
45788;PMS7003;31492;54.856;26.318;2023-02-23T09:31:31;20.7;17.1;12.4
45788;PMS7003;31492;54.856;26.318;2023-02-23T09:36:24;24.8;20.6;14
45788;PMS7003;31492;54.856;26.318;2023-02-23T09:41:21;22.9;18.9;13.5
45788;PMS7003;31492;54.856;26.318;2023-02-23T09:46:13;24.3;19.6;14.1
45788;PMS7003;31492;54.856;26.318;2023-02-23T09:51:11;24;19.3;13.2
45788;PMS7003;31492;54.856;26.318;2023-02-23T09:56:11;22.6;19.1;13.5
45788;PMS7003;31492;54.856;26.318;2023-02-23T10:01:31;22.3;19.3;13.6
45788;PMS7003;31492;54.856;26.318;2023-02-23T10:06:33;24.2;18.9;13.8
45788;PMS7003;31492;54.856;26.318;2023-02-23T10:11:13;21.9;18.7;12.7
45788;PMS7003;31492;54.856;26.318;2023-02-23T10:16:27;21.5;18.5;13
45788;PMS7003;31492;54.856;26.318;2023-02-23T10:21:20;19.9;16.8;11.9
45788;PMS7003;31492;54.856;26.318;2023-02-23T10:26:25;20.8;16.9;11.9
45788;PMS7003;31492;54.856;26.318;2023-02-23T10:31:17;18.8;15.5;11.7
45788;PMS7003;31492;54.856;26.318;2023-02-23T10:36:11;18.2;15.3;10.8
45788;PMS7003;31492;54.856;26.318;2023-02-23T10:41:10;23.5;19.8;13.6
45788;PMS7003;31492;54.856;26.318;2023-02-23T10:46:20;18.2;14.6;10.8
45788;PMS7003;31492;54.856;26.318;2023-02-23T10:51:13;18.5;15.4;11.3
45788;PMS7003;31492;54.856;26.318;2023-02-23T10:56:11;17.5;14.5;10.4
45788;PMS7003;31492;54.856;26.318;2023-02-23T11:01:32;16;13.1;9.7
45788;PMS7003;31492;54.856;26.318;2023-02-23T11:06:26;18.7;15.3;10.8
45788;PMS7003;31492;54.856;26.318;2023-02-23T11:11:20;17.2;13.6;9.4
45788;PMS7003;31492;54.856;26.318;2023-02-23T11:16:11;15.4;12.5;9.5
45788;PMS7003;31492;54.856;26.318;2023-02-23T11:21:11;20.2;15.8;11.3
45788;PMS7003;31492;54.856;26.318;2023-02-23T11:26:28;14.6;12.6;8.9
45788;PMS7003;31492;54.856;26.318;2023-02-23T11:31:27;15.9;13.3;9.4
45788;PMS7003;31492;54.856;26.318;2023-02-23T11:36:24;15.8;12.5;8.2
45788;PMS7003;31492;54.856;26.318;2023-02-23T11:41:24;14.2;11.5;8.3
45788;PMS7003;31492;54.856;26.318;2023-02-23T11:46:25;15.7;12.7;8.9
45788;PMS7003;31492;54.856;26.318;2023-02-23T11:51:23;16.2;12.7;8.5
45788;PMS7003;31492;54.856;26.318;2023-02-23T11:56:19;17;14;9.7
45788;PMS7003;31492;54.856;26.318;2023-02-23T12:01:19;15.8;12.8;8.9
45788;PMS7003;31492;54.856;26.318;2023-02-23T12:06:10;13.3;11.7;8.8
45788;PMS7003;31492;54.856;26.318;2023-02-23T12:11:11;15.9;13.6;9.4
45788;PMS7003;31492;54.856;26.318;2023-02-23T12:16:23;15.8;13.1;9
45788;PMS7003;31492;54.856;26.318;2023-02-23T12:21:14;16.5;13.2;9.1
45788;PMS7003;31492;54.856;26.318;2023-02-23T12:26:11;16.4;13.6;9.6
45788;PMS7003;31492;54.856;26.318;2023-02-23T12:31:25;14.4;12.1;8.8
45788;PMS7003;31492;54.856;26.318;2023-02-23T12:36:12;12.9;10.7;7
45788;PMS7003;31492;54.856;26.318;2023-02-23T12:41:25;13.9;11.5;7.9
45788;PMS7003;31492;54.856;26.318;2023-02-23T12:46:11;14.5;11.5;8.4
45788;PMS7003;31492;54.856;26.318;2023-02-23T12:51:21;12.9;10.6;7.3
45788;PMS7003;31492;54.856;26.318;2023-02-23T12:56:13;13.7;10.5;7.5
45788;PMS7003;31492;54.856;26.318;2023-02-23T13:01:11;17;13.6;9.1
45788;PMS7003;31492;54.856;26.318;2023-02-23T13:06:26;14.8;11.1;8.3
45788;PMS7003;31492;54.856;26.318;2023-02-23T13:11:12;13.1;9.7;7.3
45788;PMS7003;31492;54.856;26.318;2023-02-23T13:16:12;11.6;9.6;6.9
45788;PMS7003;31492;54.856;26.318;2023-02-23T13:21:26;13.1;9.3;6.7
45788;PMS7003;31492;54.856;26.318;2023-02-23T13:26:27;11.7;9.5;7
45788;PMS7003;31492;54.856;26.318;2023-02-23T13:31:24;10.5;8.6;6.5
45788;PMS7003;31492;54.856;26.318;2023-02-23T13:36:25;10;8.2;6.6
45788;PMS7003;31492;54.856;26.318;2023-02-23T13:41:49;11.6;9.5;6.8
45788;PMS7003;31492;54.856;26.318;2023-02-23T13:46:13;12.3;10.5;7.6
45788;PMS7003;31492;54.856;26.318;2023-02-23T13:51:12;11.4;10.1;7.2
45788;PMS7003;31492;54.856;26.318;2023-02-23T13:56:23;11.4;9.8;7.2
45788;PMS7003;31492;54.856;26.318;2023-02-23T14:01:25;12.7;9.6;7.2
45788;PMS7003;31492;54.856;26.318;2023-02-23T14:06:19;12.7;10.2;7
45788;PMS7003;31492;54.856;26.318;2023-02-23T14:11:25;11.6;9.7;6.9
45788;PMS7003;31492;54.856;26.318;2023-02-23T14:16:32;13.4;11.3;8.3
45788;PMS7003;31492;54.856;26.318;2023-02-23T14:21:25;13.6;10.4;7.8
45788;PMS7003;31492;54.856;26.318;2023-02-23T14:26:12;13.6;10.6;8.3
45788;PMS7003;31492;54.856;26.318;2023-02-23T14:31:51;12.6;10.4;7.7
45788;PMS7003;31492;54.856;26.318;2023-02-23T14:36:28;13;11.4;8.3
45788;PMS7003;31492;54.856;26.318;2023-02-23T14:41:10;14;10.5;7.8
45788;PMS7003;31492;54.856;26.318;2023-02-23T14:46:12;13.5;9.9;6.5
45788;PMS7003;31492;54.856;26.318;2023-02-23T14:51:27;13.5;10.2;7.4
45788;PMS7003;31492;54.856;26.318;2023-02-23T14:56:19;11.7;9.4;6.7
45788;PMS7003;31492;54.856;26.318;2023-02-23T15:01:33;13;9;7
45788;PMS7003;31492;54.856;26.318;2023-02-23T15:06:45;12.7;10.1;6.7
45788;PMS7003;31492;54.856;26.318;2023-02-23T15:11:24;10.3;8.3;5.6
45788;PMS7003;31492;54.856;26.318;2023-02-23T15:16:11;12.7;10.4;7.7
45788;PMS7003;31492;54.856;26.318;2023-02-23T15:21:11;11.8;10.2;7.2
45788;PMS7003;31492;54.856;26.318;2023-02-23T15:26:14;11.8;10.2;7.5
45788;PMS7003;31492;54.856;26.318;2023-02-23T15:31:10;11.9;10;7.5
45788;PMS7003;31492;54.856;26.318;2023-02-23T15:36:24;9.7;8;5.7
45788;PMS7003;31492;54.856;26.318;2023-02-23T15:41:12;10.1;8.3;6.3
45788;PMS7003;31492;54.856;26.318;2023-02-23T15:46:20;9.8;8.8;6.5
45788;PMS7003;31492;54.856;26.318;2023-02-23T15:51:28;11;8.9;6.8
45788;PMS7003;31492;54.856;26.318;2023-02-23T15:56:24;11.8;9.3;7
45788;PMS7003;31492;54.856;26.318;2023-02-23T16:01:11;11.8;9.4;6.7
45788;PMS7003;31492;54.856;26.318;2023-02-23T16:06:20;13.5;10.6;7.8
45788;PMS7003;31492;54.856;26.318;2023-02-23T16:11:18;11.7;8.8;6.7
45788;PMS7003;31492;54.856;26.318;2023-02-23T16:16:24;11.4;9.5;7
45788;PMS7003;31492;54.856;26.318;2023-02-23T16:21:32;13.4;10.5;8
45788;PMS7003;31492;54.856;26.318;2023-02-23T16:26:14;11.7;9.4;7.1
45788;PMS7003;31492;54.856;26.318;2023-02-23T16:31:40;11.8;9.5;7.4
45788;PMS7003;31492;54.856;26.318;2023-02-23T16:36:19;13.6;10.8;7.9
45788;PMS7003;31492;54.856;26.318;2023-02-23T16:41:25;13;10.1;7.2
45788;PMS7003;31492;54.856;26.318;2023-02-23T16:46:10;13.4;10;7.5
45788;PMS7003;31492;54.856;26.318;2023-02-23T16:51:25;10.2;8.6;6.4
45788;PMS7003;31492;54.856;26.318;2023-02-23T16:56:32;11.3;8.7;6.1
45788;PMS7003;31492;54.856;26.318;2023-02-23T17:01:10;10.5;9.4;7.4
45788;PMS7003;31492;54.856;26.318;2023-02-23T17:06:11;9.8;8.3;6
45788;PMS7003;31492;54.856;26.318;2023-02-23T17:11:24;10.8;9;7
45788;PMS7003;31492;54.856;26.318;2023-02-23T17:16:36;11.3;8.8;6.2
45788;PMS7003;31492;54.856;26.318;2023-02-23T17:21:46;11.1;8.5;6.3
45788;PMS7003;31492;54.856;26.318;2023-02-23T17:26:17;10.6;8.8;6.7
45788;PMS7003;31492;54.856;26.318;2023-02-23T17:31:10;9.4;8.1;5.5
45788;PMS7003;31492;54.856;26.318;2023-02-23T17:36:11;11.2;9.3;6.9
45788;PMS7003;31492;54.856;26.318;2023-02-23T17:41:53;10.2;8.2;6.3
45788;PMS7003;31492;54.856;26.318;2023-02-23T17:46:32;12.3;9.4;7.1
45788;PMS7003;31492;54.856;26.318;2023-02-23T17:51:18;10.9;8.7;6.1
45788;PMS7003;31492;54.856;26.318;2023-02-23T17:56:24;11.2;8.9;6.4
45788;PMS7003;31492;54.856;26.318;2023-02-23T18:01:20;10.2;8.6;6.5
45788;PMS7003;31492;54.856;26.318;2023-02-23T18:06:11;13.3;9.9;7.4
45788;PMS7003;31492;54.856;26.318;2023-02-23T18:11:11;11.8;9.3;6.8
45788;PMS7003;31492;54.856;26.318;2023-02-23T18:16:28;11.4;8.7;6.5
45788;PMS7003;31492;54.856;26.318;2023-02-23T18:21:11;13.1;10.9;7.9
45788;PMS7003;31492;54.856;26.318;2023-02-23T18:26:45;13.2;9.8;7.4
45788;PMS7003;31492;54.856;26.318;2023-02-23T18:31:11;12.3;10.2;7.1
45788;PMS7003;31492;54.856;26.318;2023-02-23T18:36:25;10.5;9.2;7
45788;PMS7003;31492;54.856;26.318;2023-02-23T18:41:19;12.1;9.9;7
45788;PMS7003;31492;54.856;26.318;2023-02-23T18:46:11;11.3;9.3;6.9
45788;PMS7003;31492;54.856;26.318;2023-02-23T18:51:11;10.8;8.7;6.4
45788;PMS7003;31492;54.856;26.318;2023-02-23T18:56:35;11.8;9.6;7
45788;PMS7003;31492;54.856;26.318;2023-02-23T19:01:11;12.1;9.4;6.7
45788;PMS7003;31492;54.856;26.318;2023-02-23T19:06:11;11.4;9.3;6.3
45788;PMS7003;31492;54.856;26.318;2023-02-23T19:11:39;10.9;9.2;7.2
45788;PMS7003;31492;54.856;26.318;2023-02-23T19:16:31;10.3;8.5;6.5
45788;PMS7003;31492;54.856;26.318;2023-02-23T19:21:36;10;8.5;6.2
45788;PMS7003;31492;54.856;26.318;2023-02-23T19:26:31;10.9;8.9;6.6
45788;PMS7003;31492;54.856;26.318;2023-02-23T19:31:11;12.2;8.6;6.6
45788;PMS7003;31492;54.856;26.318;2023-02-23T19:36:11;12.1;9;6.2
45788;PMS7003;31492;54.856;26.318;2023-02-23T19:41:31;11;9.1;7
45788;PMS7003;31492;54.856;26.318;2023-02-23T19:46:11;12.1;9.6;7.6
45788;PMS7003;31492;54.856;26.318;2023-02-23T19:51:33;11.2;9;6.7
45788;PMS7003;31492;54.856;26.318;2023-02-23T19:56:11;10.4;8.5;6.5
45788;PMS7003;31492;54.856;26.318;2023-02-23T20:01:25;10.7;8.5;6.3
45788;PMS7003;31492;54.856;26.318;2023-02-23T20:06:11;11.9;9.8;6.8
45788;PMS7003;31492;54.856;26.318;2023-02-23T20:11:10;12.4;9.5;6.5
45788;PMS7003;31492;54.856;26.318;2023-02-23T20:16:11;10.1;8.6;6.2
45788;PMS7003;31492;54.856;26.318;2023-02-23T20:21:11;10.8;8.7;6.7
45788;PMS7003;31492;54.856;26.318;2023-02-23T20:26:11;11.3;8.8;6.5
45788;PMS7003;31492;54.856;26.318;2023-02-23T20:31:20;10.3;8.4;6.6
45788;PMS7003;31492;54.856;26.318;2023-02-23T20:36:24;11;8.8;6.6
45788;PMS7003;31492;54.856;26.318;2023-02-23T20:41:11;11.2;8.2;6
45788;PMS7003;31492;54.856;26.318;2023-02-23T20:46:11;11;8.7;6.5
45788;PMS7003;31492;54.856;26.318;2023-02-23T20:51:25;11.8;9.1;6.7
45788;PMS7003;31492;54.856;26.318;2023-02-23T20:56:30;12;10.4;7.7
45788;PMS7003;31492;54.856;26.318;2023-02-23T21:01:22;11.6;8.6;6.2
45788;PMS7003;31492;54.856;26.318;2023-02-23T21:06:33;10.4;8;5.9
45788;PMS7003;31492;54.856;26.318;2023-02-23T21:11:31;10.5;8.7;6.2
45788;PMS7003;31492;54.856;26.318;2023-02-23T21:16:39;10.9;8.4;6.2
45788;PMS7003;31492;54.856;26.318;2023-02-23T21:21:18;11.6;9.8;6.9
45788;PMS7003;31492;54.856;26.318;2023-02-23T21:26:22;10.5;8.9;6.8
45788;PMS7003;31492;54.856;26.318;2023-02-23T21:31:24;11.7;9.7;7
45788;PMS7003;31492;54.856;26.318;2023-02-23T21:36:11;11.4;8.9;6.3
45788;PMS7003;31492;54.856;26.318;2023-02-23T21:41:25;8.4;7.7;5.7
45788;PMS7003;31492;54.856;26.318;2023-02-23T21:46:31;9.9;8.1;6.2
45788;PMS7003;31492;54.856;26.318;2023-02-23T21:51:11;9.1;8;5.9
45788;PMS7003;31492;54.856;26.318;2023-02-23T21:56:32;8.9;8.1;5.8
45788;PMS7003;31492;54.856;26.318;2023-02-23T22:01:11;10.1;7.8;5.6
45788;PMS7003;31492;54.856;26.318;2023-02-23T22:06:11;9.4;7.4;5.6
45788;PMS7003;31492;54.856;26.318;2023-02-23T22:11:19;9.1;7.6;5.7
45788;PMS7003;31492;54.856;26.318;2023-02-23T22:16:11;9.3;7.6;5.8
45788;PMS7003;31492;54.856;26.318;2023-02-23T22:21:33;8.3;6.8;5.4
45788;PMS7003;31492;54.856;26.318;2023-02-23T22:26:16;8.8;6.8;5.2
45788;PMS7003;31492;54.856;26.318;2023-02-23T22:31:11;7.8;6.3;4.9
45788;PMS7003;31492;54.856;26.318;2023-02-23T22:36:17;7.5;5.9;4.9
45788;PMS7003;31492;54.856;26.318;2023-02-23T22:41:41;8.1;6.7;4.9
45788;PMS7003;31492;54.856;26.318;2023-02-23T22:46:24;8.2;6.6;5.1
45788;PMS7003;31492;54.856;26.318;2023-02-23T22:51:11;8.1;6.3;4.8
45788;PMS7003;31492;54.856;26.318;2023-02-23T22:56:24;8.5;7;5.5
45788;PMS7003;31492;54.856;26.318;2023-02-23T23:01:28;9.2;7.4;5.2
45788;PMS7003;31492;54.856;26.318;2023-02-23T23:06:41;9.4;7.1;5.6
45788;PMS7003;31492;54.856;26.318;2023-02-23T23:11:11;7.8;6.9;5.3
45788;PMS7003;31492;54.856;26.318;2023-02-23T23:16:31;8.1;6.4;4.8
45788;PMS7003;31492;54.856;26.318;2023-02-23T23:21:24;8.2;7.3;5.3
45788;PMS7003;31492;54.856;26.318;2023-02-23T23:26:17;8.8;6.6;4.5
45788;PMS7003;31492;54.856;26.318;2023-02-23T23:31:10;8.4;7.1;5.3
45788;PMS7003;31492;54.856;26.318;2023-02-23T23:36:10;10.6;8.1;5.9
45788;PMS7003;31492;54.856;26.318;2023-02-23T23:41:24;10;8.3;6
45788;PMS7003;31492;54.856;26.318;2023-02-23T23:46:26;9.8;8.3;6.3
45788;PMS7003;31492;54.856;26.318;2023-02-23T23:51:19;9.6;7.8;5.9
45788;PMS7003;31492;54.856;26.318;2023-02-23T23:56:10;9.3;7.3;5.8
